Terminal Aerodrome Forecast
Issued by NWS

Home | Current Version | Previous Version | Text Only | Print | Product List | Glossary On
Versions: 1 2 3 4 5 6 7 8 9 10 11 12 13 14 15 16 17 18 19 20 21
000
FTUS46 KOTX 191738
TAFPUW
TAF
KPUW 191738Z 1918/2018 11007KT P6SM SCT010 SCT040
     FM191900 23010KT P6SM -SHRA SCT050 BKN080
      TEMPO 1920/1923 -TSRAGS BKN040CB OVC060
     FM200000 19007KT P6SM VCSH BKN060
     FM200200 14006KT P6SM BKN080
     FM201200 10010KT P6SM -RA BKN010 OVC020=

USA.gov is the U.S. government's official web portal to all federal, state and local government web resources and services.